Terminal Aerodrome Forecast
Issued by NWS

Home | Current Version | Previous Version | Text Only | Print | Product List | Glossary On
Versions: 1 2 3 4 5 6 7 8 9 10 11 12 13 14 15 16 17 18 19 20 21 22 23 24 25 26
000
FTUS45 KBOU 222331
TAFAPA
TAF
KAPA 222331Z 2300/2324 18012KT P6SM VCTS SCT090CB BKN130
      TEMPO 2300/2302 VRB15G28KT BKN090CB
     FM230200 22012KT P6SM SCT090 BKN130
     FM230600 21008KT P6SM SCT130
     FM231700 03007KT P6SM FEW090 SCT130
     FM232200 05008KT P6SM SCT090 BKN130 PROB30 2322/2324 VRB15G28KT
      -TSRA BKN090CB=

USA.gov is the U.S. government's official web portal to all federal, state and local government web resources and services.